Time;durP1;ratioP1;P1;durP2;ratioP2;P2;SDS_P1;SDS_P2;PMS_P1;PMS_P2;Temp;Humidity;BMP_temperature;BMP_pressure;BME280_temperature;BME280_humidity;BME280_pressure;Samples;Min_cycle;Max_cycle;Signal;HPM_P1;HPM_P2
2022/08/13 00:02:14;;;;;;;4.28;1.60;;;15.80;90.90;;;;;;5047758;28;20047;-64
2022/08/13 00:05:23;;;;;;;8.77;2.15;;;15.90;90.70;;;;;;5042779;28;20049;-63
2022/08/13 00:07:29;;;;;;;6.47;1.70;;;15.80;90.80;;;;;;5035745;28;20061;-63
2022/08/13 00:09:57;;;;;;;5.72;1.75;;;15.70;91.10;;;;;;5040865;28;20843;-64
2022/08/13 00:15:20;;;;;;;8.38;1.70;;;15.70;91.20;;;;;;5041663;28;20045;-64
2022/08/13 00:17:49;;;;;;;5.65;1.65;;;15.80;91.30;;;;;;5034866;28;20072;-63
2022/08/13 00:20:17;;;;;;;2.92;1.77;;;15.70;91.40;;;;;;5026132;28;20045;-64
2022/08/13 00:22:43;;;;;;;1.73;1.35;;;15.70;91.20;;;;;;5027340;28;20042;-64
2022/08/13 00:25:10;;;;;;;6.65;1.58;;;15.70;91.10;;;;;;5024331;28;20049;-63
2022/08/13 00:27:35;;;;;;;3.03;1.50;;;15.60;91.50;;;;;;5028039;28;20041;-64
2022/08/13 00:30:05;;;;;;;;;;;15.60;91.50;;;;;;5029064;28;20420;-63
2022/08/13 00:32:31;;;;;;;2.38;1.30;;;15.60;91.80;;;;;;5027438;28;19924;-64
2022/08/13 00:34:57;;;;;;;;;;;15.60;91.90;;;;;;5025305;28;20053;-63
2022/08/13 00:37:25;;;;;;;4.45;1.48;;;15.50;91.50;;;;;;5027716;28;20388;-64
2022/08/13 00:39:51;;;;;;;2.05;1.50;;;15.30;91.90;;;;;;5028115;28;20050;-68
2022/08/13 00:42:23;;;;;;;6.35;1.70;;;15.40;92.30;;;;;;5029551;28;20049;-63
2022/08/13 00:44:48;;;;;;;2.83;1.55;;;15.50;92.00;;;;;;5028711;28;20042;-63
2022/08/13 00:50:00;;;;;;;2.67;1.60;;;15.50;92.30;;;;;;5028220;28;20381;-64
2022/08/13 00:52:30;;;;;;;7.07;1.63;;;15.50;92.20;;;;;;5008620;28;20504;-63
2022/08/13 00:55:00;;;;;;;2.15;1.60;;;15.40;92.60;;;;;;5014594;28;20176;-64
2022/08/13 00:57:28;;;;;;;3.85;1.70;;;15.40;92.10;;;;;;5026806;28;20106;-63
2022/08/13 00:59:54;;;;;;;3.55;1.85;;;15.40;92.60;;;;;;5028302;28;20045;-62
2022/08/13 01:02:21;;;;;;;4.35;1.60;;;15.30;92.90;;;;;;5027921;28;20175;-63
2022/08/13 01:04:46;;;;;;;5.10;1.63;;;15.30;92.80;;;;;;5028078;28;20069;-64
2022/08/13 01:07:14;;;;;;;;;;;15.40;92.40;;;;;;5028186;28;20616;-63
2022/08/13 01:09:40;;;;;;;6.65;1.83;;;15.30;93.00;;;;;;5027949;28;19921;-63
2022/08/13 01:12:09;;;;;;;4.85;1.63;;;15.30;92.90;;;;;;5027556;28;20055;-63
2022/08/13 01:14:36;;;;;;;4.05;1.50;;;15.30;92.90;;;;;;5024193;28;20100;-61
2022/08/13 01:17:04;;;;;;;2.30;1.80;;;15.30;92.80;;;;;;5026522;28;20068;-64
2022/08/13 01:19:33;;;;;;;5.60;2.00;;;15.30;92.70;;;;;;5027625;28;20038;-63
2022/08/13 01:22:00;;;;;;;2.38;1.50;;;15.20;93.30;;;;;;5027049;28;20340;-63
2022/08/13 01:24:28;;;;;;;2.25;1.50;;;15.20;93.40;;;;;;5027527;28;20565;-63
2022/08/13 01:26:55;;;;;;;3.00;1.80;;;15.30;92.90;;;;;;5026403;28;20559;-63
2022/08/13 01:29:20;;;;;;;5.78;2.25;;;15.10;93.40;;;;;;5026142;28;20088;-62
2022/08/13 01:31:46;;;;;;;;;;;15.20;93.40;;;;;;5027462;28;20127;-63
2022/08/13 01:34:13;;;;;;;3.78;2.85;;;15.20;93.60;;;;;;5027022;28;19927;-62
2022/08/13 01:36:40;;;;;;;4.82;1.70;;;15.10;93.80;;;;;;5026431;28;20041;-63
2022/08/13 01:39:06;;;;;;;6.75;1.70;;;15.10;93.90;;;;;;5027398;28;20045;-61
2022/08/13 01:41:33;;;;;;;;;;;15.00;94.00;;;;;;5027120;28;20038;-64
2022/08/13 01:44:06;;;;;;;7.32;1.80;;;15.10;94.40;;;;;;5027087;28;19924;-64
2022/08/13 01:50:29;;;;;;;8.32;1.75;;;15.00;93.80;;;;;;5019093;28;20501;-63
2022/08/13 01:52:08;;;;;;;7.03;1.63;;;15.10;94.60;;;;;;5027050;28;20041;-63
2022/08/13 01:54:35;;;;;;;8.13;1.90;;;15.00;94.10;;;;;;5026604;28;20119;-63
2022/08/13 01:57:04;;;;;;;5.03;1.70;;;15.00;94.40;;;;;;5025866;28;20045;-64
2022/08/13 01:59:34;;;;;;;3.95;1.65;;;14.90;94.50;;;;;;5026523;28;20096;-64
2022/08/13 02:02:01;;;;;;;2.28;1.80;;;15.00;95.00;;;;;;5025787;28;20488;-64
2022/08/13 02:04:28;;;;;;;2.42;2.00;;;15.10;94.90;;;;;;5026989;28;20080;-64
2022/08/13 02:06:54;;;;;;;3.28;1.60;;;15.00;94.80;;;;;;5025135;28;20038;-63
2022/08/13 02:09:21;;;;;;;;;;;15.00;94.90;;;;;;5027279;28;20100;-63
2022/08/13 02:11:48;;;;;;;3.95;1.60;;;15.10;95.20;;;;;;5026319;28;19921;-63
2022/08/13 02:14:14;;;;;;;2.97;1.90;;;15.10;95.10;;;;;;5027015;28;20056;-64
2022/08/13 02:16:39;;;;;;;;;;;15.00;94.50;;;;;;5026960;28;20174;-63
2022/08/13 02:19:07;;;;;;;4.07;1.90;;;15.10;94.90;;;;;;5026676;28;20007;-64
2022/08/13 02:21:36;;;;;;;5.50;1.85;;;15.10;94.80;;;;;;5026685;28;20060;-63
2022/08/13 02:24:03;;;;;;;4.97;1.60;;;15.10;94.90;;;;;;5026594;28;20116;-62
2022/08/13 02:26:31;;;;;;;9.50;1.92;;;15.10;95.10;;;;;;5025873;28;20056;-63
2022/08/13 02:28:59;;;;;;;5.93;1.98;;;15.10;95.30;;;;;;5026797;28;20091;-63
2022/08/13 02:31:28;;;;;;;3.05;1.70;;;15.10;94.90;;;;;;5033733;28;20041;-63
2022/08/13 02:33:54;;;;;;;4.25;1.80;;;15.10;94.80;;;;;;5046456;28;20076;-62
2022/08/13 02:36:22;;;;;;;;;;;15.10;95.40;;;;;;5047316;28;20095;-63
2022/08/13 02:39:00;;;;;;;8.23;1.88;;;15.10;95.20;;;;;;5031925;28;19975;-64
2022/08/13 02:41:42;;;;;;;3.88;1.92;;;15.10;95.40;;;;;;5030218;28;20036;-64
2022/08/13 02:44:13;;;;;;;2.60;1.77;;;15.10;95.60;;;;;;5044558;28;20056;-63
2022/08/13 02:46:42;;;;;;;8.48;1.85;;;15.00;95.40;;;;;;5045086;28;20041;-63
2022/08/13 02:49:08;;;;;;;4.43;1.80;;;15.00;95.20;;;;;;5045632;28;20033;-64
2022/08/13 02:51:34;;;;;;;6.10;1.92;;;15.00;95.60;;;;;;5045444;28;20068;-64
2022/08/13 02:54:02;;;;;;;;;;;15.00;95.50;;;;;;5046525;28;20091;-63
2022/08/13 02:56:29;;;;;;;3.75;1.58;;;15.00;95.60;;;;;;5044681;28;20705;-63
2022/08/13 02:58:56;;;;;;;3.97;1.95;;;15.00;95.40;;;;;;5045406;28;20106;-61
2022/08/13 03:01:25;;;;;;;3.05;1.65;;;15.00;95.70;;;;;;5036454;28;20049;-63
2022/08/13 03:03:53;;;;;;;3.47;1.90;;;15.00;96.10;;;;;;5025984;28;20046;-62
2022/08/13 03:06:19;;;;;;;4.97;2.35;;;15.00;95.40;;;;;;5025246;28;20048;-64
2022/08/13 03:08:48;;;;;;;7.50;2.00;;;15.00;95.40;;;;;;5025699;28;20128;-64
2022/08/13 03:11:14;;;;;;;5.90;2.00;;;14.90;96.00;;;;;;5025286;28;20041;-61
2022/08/13 03:13:43;;;;;;;2.22;1.88;;;14.90;96.20;;;;;;5022517;28;20057;-63
2022/08/13 03:16:12;;;;;;;3.72;1.75;;;14.80;96.00;;;;;;5024812;28;20110;-63
2022/08/13 03:18:37;;;;;;;6.85;1.60;;;14.80;96.30;;;;;;5024605;28;20110;-63
2022/08/13 03:21:03;;;;;;;;;;;14.80;96.30;;;;;;5026017;28;20045;-63
2022/08/13 03:23:31;;;;;;;2.85;2.00;;;14.80;96.10;;;;;;5026047;28;19987;-63
2022/08/13 03:25:57;;;;;;;5.50;2.38;;;14.70;96.30;;;;;;5024387;28;20108;-63
2022/08/13 03:28:23;;;;;;;;;;;14.70;96.50;;;;;;5025944;28;20474;-63
2022/08/13 03:30:49;;;;;;;1.92;1.63;;;14.70;96.60;;;;;;5025554;28;19921;-63
2022/08/13 03:33:14;;;;;;;;;;;14.70;96.60;;;;;;5026010;28;20702;-63
2022/08/13 03:35:41;;;;;;;2.50;2.00;;;14.70;96.70;;;;;;5026103;28;20389;-62
2022/08/13 03:38:10;;;;;;;2.47;1.70;;;14.70;96.40;;;;;;5023063;28;20116;-61
2022/08/13 03:43:22;;;;;;;3.88;1.80;;;14.70;96.10;;;;;;5025983;28;20076;-63
2022/08/13 03:45:48;;;;;;;3.90;1.63;;;14.70;96.20;;;;;;5025077;28;20049;-63
2022/08/13 03:48:14;;;;;;;;;;;14.70;96.20;;;;;;5024555;28;20104;-62
2022/08/13 03:50:41;;;;;;;5.05;1.90;;;14.70;96.60;;;;;;5025385;28;19921;-63
2022/08/13 03:53:07;;;;;;;1.85;1.65;;;14.70;97.00;;;;;;5027712;28;20123;-63
2022/08/13 03:55:37;;;;;;;;;;;14.70;96.70;;;;;;5028799;28;20295;-62
2022/08/13 03:58:04;;;;;;;5.97;1.83;;;14.70;96.60;;;;;;5028737;28;20069;-62
2022/08/13 04:00:32;;;;;;;2.40;1.67;;;14.70;96.50;;;;;;5029702;28;20041;-63
2022/08/13 04:03:00;;;;;;;11.15;2.05;;;14.70;96.90;;;;;;5029013;28;20041;-64
2022/08/13 04:05:26;;;;;;;3.45;2.08;;;14.70;96.30;;;;;;5029855;28;20057;-63
2022/08/13 04:07:52;;;;;;;2.20;1.77;;;14.70;96.30;;;;;;5028285;28;20073;-64
2022/08/13 04:10:19;;;;;;;8.32;1.85;;;14.60;96.50;;;;;;5026944;28;20586;-62
2022/08/13 04:12:46;;;;;;;4.82;1.98;;;14.60;96.60;;;;;;5028939;28;20099;-63
2022/08/13 04:15:11;;;;;;;3.22;2.20;;;14.50;96.70;;;;;;5028196;28;20049;-63
2022/08/13 04:17:37;;;;;;;;;;;14.40;96.90;;;;;;5027568;28;20045;-63
2022/08/13 04:20:09;;;;;;;10.52;1.90;;;14.40;97.00;;;;;;5026612;28;19917;-63
2022/08/13 04:22:36;;;;;;;4.07;2.10;;;14.40;96.80;;;;;;5028194;28;20199;-63
2022/08/13 04:25:04;;;;;;;5.80;2.15;;;14.40;96.80;;;;;;5027470;28;20551;-63
2022/08/13 04:27:34;;;;;;;4.53;1.95;;;14.40;97.10;;;;;;5027572;28;20652;-63
2022/08/13 04:30:02;;;;;;;7.65;2.35;;;14.40;97.30;;;;;;5028608;28;20046;-63
2022/08/13 04:32:28;;;;;;;3.47;2.38;;;14.30;97.20;;;;;;5046896;28;20061;-62
2022/08/13 04:34:54;;;;;;;;;;;14.30;97.30;;;;;;5046903;28;20044;-61
2022/08/13 04:37:22;;;;;;;2.08;1.77;;;14.30;97.20;;;;;;5045833;28;19964;-62
2022/08/13 04:39:53;;;;;;;3.35;2.35;;;14.40;97.30;;;;;;5043292;28;20044;-63
2022/08/13 04:42:19;;;;;;;4.50;1.80;;;14.50;97.20;;;;;;5048851;28;20051;-63
2022/08/13 04:44:44;;;;;;;;;;;14.70;96.90;;;;;;5047760;28;20037;-62
2022/08/13 04:47:10;;;;;;;5.85;1.80;;;14.90;96.60;;;;;;5046823;28;19924;-63
2022/08/13 04:49:35;;;;;;;;;;;15.00;95.90;;;;;;5046734;28;20045;-64
2022/08/13 04:52:01;;;;;;;5.18;1.90;;;14.90;96.20;;;;;;5055916;28;20362;-63
2022/08/13 04:54:28;;;;;;;;;;;15.00;96.00;;;;;;5052436;28;20037;-60
2022/08/13 04:56:54;;;;;;;3.10;2.17;;;15.10;96.30;;;;;;5051155;28;19952;-63
2022/08/13 04:59:22;;;;;;;5.45;2.10;;;15.10;96.20;;;;;;5044713;28;20044;-62
2022/08/13 05:01:48;;;;;;;5.88;2.05;;;15.50;95.30;;;;;;5058773;28;20190;-63
2022/08/13 05:04:17;;;;;;;10.18;1.98;;;15.80;95.20;;;;;;5059765;28;20072;-62
2022/08/13 05:06:46;;;;;;;7.72;2.13;;;16.00;94.70;;;;;;5045287;28;20505;-62
2022/08/13 05:09:11;;;;;;;6.70;1.88;;;16.10;94.50;;;;;;5053800;28;20288;-62
2022/08/13 05:11:37;;;;;;;;;;;16.00;95.00;;;;;;5060421;28;20485;-63
2022/08/13 05:14:03;;;;;;;3.55;1.60;;;15.90;95.00;;;;;;5046603;28;19999;-64
2022/08/13 05:16:28;;;;;;;2.53;1.80;;;15.90;95.30;;;;;;5055284;28;20072;-59
2022/08/13 05:18:54;;;;;;;;;;;15.90;94.90;;;;;;5049970;28;20065;-64
2022/08/13 05:21:23;;;;;;;4.07;1.98;;;15.90;95.20;;;;;;5050529;28;19931;-63
2022/08/13 05:23:53;;;;;;;2.70;2.00;;;15.90;95.60;;;;;;5058638;28;20049;-63
2022/08/13 05:26:21;;;;;;;2.53;1.77;;;15.90;96.10;;;;;;5053705;28;20056;-63
2022/08/13 05:28:48;;;;;;;2.08;1.85;;;15.90;95.90;;;;;;5051332;28;20119;-62
2022/08/13 05:31:13;;;;;;;4.40;2.00;;;16.00;96.10;;;;;;5059884;28;20033;-64
2022/08/13 05:33:39;;;;;;;;;;;16.10;96.20;;;;;;5067890;28;20036;-63
2022/08/13 05:36:05;;;;;;;2.65;1.90;;;16.30;95.00;;;;;;5047117;28;20569;-64
2022/08/13 05:38:31;;;;;;;;;;;16.50;94.80;;;;;;5047133;28;20045;-63
2022/08/13 05:40:59;;;;;;;5.93;1.98;;;16.50;94.80;;;;;;5046495;28;19917;-62
2022/08/13 05:43:27;;;;;;;3.42;1.90;;;16.50;94.30;;;;;;5047013;28;20562;-63
2022/08/13 05:45:59;;;;;;;6.00;1.95;;;16.60;94.40;;;;;;5046979;28;20118;-62
2022/08/13 05:48:29;;;;;;;2.90;2.10;;;16.60;94.40;;;;;;5046929;28;20048;-63
2022/08/13 05:50:59;;;;;;;2.65;1.88;;;16.70;94.20;;;;;;5046169;28;20074;-64
2022/08/13 05:53:26;;;;;;;4.60;2.05;;;16.80;94.30;;;;;;5047146;28;20041;-64
2022/08/13 05:55:53;;;;;;;3.13;2.25;;;16.90;93.90;;;;;;5045392;28;20052;-64
2022/08/13 05:58:21;;;;;;;3.65;2.60;;;17.20;93.70;;;;;;5046227;28;20044;-61
2022/08/13 06:03:31;;;;;;;3.17;1.83;;;17.10;93.60;;;;;;5049593;28;20468;-63
2022/08/13 06:05:59;;;;;;;;;;;17.10;94.10;;;;;;5044574;28;20083;-64
2022/08/13 06:08:28;;;;;;;;;;;17.20;94.10;;;;;;5051722;28;20011;-64
2022/08/13 06:10:55;;;;;;;3.72;1.73;;;17.30;94.00;;;;;;5045000;28;20397;-65
2022/08/13 06:13:21;;;;;;;7.68;1.90;;;17.50;93.90;;;;;;5059637;28;20089;-63
2022/08/13 06:15:57;;;;;;;;;;;17.50;94.40;;;;;;5042676;28;20072;-66
2022/08/13 06:18:27;;;;;;;4.38;1.95;;;17.50;94.20;;;;;;5029967;28;19927;-63
2022/08/13 06:20:55;;;;;;;5.15;2.20;;;17.60;94.20;;;;;;5047117;28;20037;-63
2022/08/13 06:23:24;;;;;;;5.18;2.17;;;17.90;94.10;;;;;;5046697;28;20044;-63
2022/08/13 06:25:52;;;;;;;5.38;1.98;;;18.30;94.10;;;;;;5046239;28;20049;-59
2022/08/13 06:28:23;;;;;;;4.57;2.00;;;18.50;93.40;;;;;;5050805;28;20075;-64
2022/08/13 06:30:50;;;;;;;2.60;1.60;;;18.60;93.30;;;;;;5060863;28;20068;-64
2022/08/13 06:33:21;;;;;;;4.18;1.95;;;18.80;93.10;;;;;;5050432;28;20452;-62
2022/08/13 06:35:57;;;;;;;8.02;1.55;;;19.10;93.30;;;;;;5048171;28;20040;-63
2022/08/13 06:38:50;;;;;;;5.75;2.13;;;19.50;92.70;;;;;;5054852;28;20505;-64
2022/08/13 06:41:17;;;;;;;4.78;1.73;;;20.30;92.00;;;;;;5055187;28;20080;-64
2022/08/13 06:43:47;;;;;;;5.55;1.70;;;21.10;91.20;;;;;;5055653;28;20048;-66
2022/08/13 06:46:13;;;;;;;1.92;1.30;;;22.10;90.00;;;;;;5045323;28;20106;-63
2022/08/13 06:48:42;;;;;;;3.22;1.33;;;23.30;86.30;;;;;;5048527;28;20048;-63
2022/08/13 06:51:11;;;;;;;2.25;1.60;;;24.10;83.60;;;;;;5045563;28;20094;-62
2022/08/13 06:53:39;;;;;;;7.18;1.48;;;24.80;80.90;;;;;;5050080;28;20040;-61
2022/08/13 06:56:11;;;;;;;2.38;1.30;;;24.70;80.50;;;;;;5045768;28;20135;-61
2022/08/13 06:58:38;;;;;;;4.95;1.08;;;24.30;81.20;;;;;;5057721;28;20045;-61
2022/08/13 07:01:04;;;;;;;2.15;1.20;;;23.80;81.00;;;;;;5046262;28;20037;-59
2022/08/13 07:03:34;;;;;;;6.47;1.33;;;23.30;83.10;;;;;;5055447;28;20091;-61
2022/08/13 07:06:00;;;;;;;2.08;1.20;;;22.80;84.30;;;;;;5042666;28;21219;-61
2022/08/13 07:08:28;;;;;;;3.42;1.30;;;22.50;84.60;;;;;;5050622;28;20064;-60
2022/08/13 07:13:45;;;;;;;3.13;1.33;;;22.50;85.80;;;;;;5025687;28;20128;-60
2022/08/13 07:16:16;;;;;;;2.80;1.30;;;23.00;82.50;;;;;;5023514;28;20067;-60
2022/08/13 07:18:46;;;;;;;5.40;1.55;;;23.40;77.60;;;;;;5033317;28;20507;-59
2022/08/13 07:21:13;;;;;;;4.90;1.55;;;23.10;80.90;;;;;;5045089;28;20067;-61
2022/08/13 07:23:41;;;;;;;10.50;1.45;;;22.80;80.70;;;;;;5040109;28;20084;-60
2022/08/13 07:26:12;;;;;;;3.85;1.40;;;22.60;79.00;;;;;;5035497;28;20043;-61
2022/08/13 07:28:39;;;;;;;2.55;1.40;;;22.40;80.00;;;;;;5052114;28;20041;-61
2022/08/13 07:31:08;;;;;;;2.78;1.42;;;22.30;81.20;;;;;;5038175;28;20572;-60
2022/08/13 07:33:35;;;;;;;1.92;1.50;;;22.30;81.20;;;;;;5039150;28;20683;-58
2022/08/13 07:36:12;;;;;;;3.85;1.70;;;22.20;81.70;;;;;;5038707;28;20098;-58
2022/08/13 07:38:38;;;;;;;4.50;1.50;;;22.20;80.00;;;;;;5039831;28;20037;-60
2022/08/13 07:41:05;;;;;;;7.60;1.85;;;22.10;79.10;;;;;;5037308;28;20094;-61
2022/08/13 07:43:39;;;;;;;3.95;1.58;;;22.20;80.70;;;;;;5039331;28;20037;-60
2022/08/13 07:46:10;;;;;;;2.88;1.48;;;22.20;78.50;;;;;;5037140;28;20037;-61
2022/08/13 07:48:38;;;;;;;1.73;1.27;;;22.30;81.00;;;;;;5045970;28;20451;-61
2022/08/13 07:51:10;;;;;;;5.32;1.70;;;22.30;79.30;;;;;;5044706;28;20029;-61
2022/08/13 07:53:39;;;;;;;2.15;1.33;;;22.30;78.30;;;;;;5040409;28;20079;-60
2022/08/13 07:56:06;;;;;;;4.13;1.23;;;22.30;77.50;;;;;;5052694;28;20175;-61
2022/08/13 07:58:34;;;;;;;4.38;2.10;;;22.30;79.00;;;;;;5029105;28;20041;-60
2022/08/13 08:01:02;;;;;;;1.90;1.50;;;22.30;78.70;;;;;;5044105;28;20034;-60
2022/08/13 08:03:41;;;;;;;5.18;1.60;;;22.40;80.10;;;;;;5047082;28;20175;-61
2022/08/13 08:06:09;;;;;;;6.22;1.52;;;22.60;77.70;;;;;;5048240;28;20041;-60
2022/08/13 08:08:36;;;;;;;4.40;1.75;;;22.80;75.90;;;;;;5048842;28;20623;-61
2022/08/13 08:11:02;;;;;;;4.03;1.25;;;23.30;75.10;;;;;;5054583;28;20396;-61
2022/08/13 08:13:32;;;;;;;1.38;1.17;;;24.30;75.00;;;;;;5043515;28;20037;-62
2022/08/13 08:16:01;;;;;;;4.72;1.45;;;25.90;72.30;;;;;;5049700;28;20064;-62
2022/08/13 08:18:27;;;;;;;10.20;1.60;;;28.10;65.30;;;;;;5044864;28;20041;-61
2022/08/13 08:21:20;;;;;;;3.15;1.30;;;29.40;58.60;;;;;;5045430;28;20109;-61
2022/08/13 08:23:46;;;;;;;5.18;1.25;;;30.30;58.50;;;;;;5039293;28;20108;-62
2022/08/13 08:26:12;;;;;;;1.83;1.10;;;31.10;55.90;;;;;;5027906;28;20073;-62
2022/08/13 08:28:39;;;;;;;4.82;1.33;;;31.70;56.00;;;;;;5045224;28;20396;-62
2022/08/13 08:31:06;;;;;;;1.45;1.20;;;31.50;52.70;;;;;;5055775;28;20067;-62
2022/08/13 08:33:34;;;;;;;3.08;1.30;;;31.90;52.70;;;;;;5066610;28;20496;-59
2022/08/13 08:36:02;;;;;;;1.48;1.30;;;31.40;51.30;;;;;;5058848;28;20049;-60
2022/08/13 08:44:00;;;;;;;3.45;1.52;;;32.20;49.60;;;;;;5067401;28;20035;-59
2022/08/13 08:46:29;;;;;;;2.13;1.20;;;31.50;49.80;;;;;;5054236;28;20528;-58
2022/08/13 08:48:55;;;;;;;4.70;1.10;;;30.20;51.30;;;;;;5047917;28;20040;-59
2022/08/13 08:51:21;;;;;;;13.10;2.05;;;29.20;54.60;;;;;;5039827;28;20120;-61
2022/08/13 08:53:48;;;;;;;1.98;1.50;;;27.90;57.00;;;;;;5047139;28;20060;-60
2022/08/13 08:56:16;;;;;;;3.63;1.60;;;27.00;60.90;;;;;;5046732;28;20047;-61
2022/08/13 08:58:42;;;;;;;6.60;1.38;;;26.50;60.40;;;;;;5048517;28;20700;-61
2022/08/13 09:01:10;;;;;;;5.90;1.60;;;26.30;62.50;;;;;;5048719;28;20041;-62
2022/08/13 09:03:40;;;;;;;4.40;1.63;;;26.00;62.30;;;;;;5040643;28;20033;-62
2022/08/13 09:06:08;;;;;;;4.55;1.65;;;26.10;63.10;;;;;;5046645;28;20053;-63
2022/08/13 09:08:35;;;;;;;3.55;1.40;;;26.10;62.50;;;;;;5046991;28;20497;-62
2022/08/13 09:11:02;;;;;;;6.68;1.48;;;26.10;62.30;;;;;;5047707;28;20587;-63
2022/08/13 09:13:28;;;;;;;3.38;1.17;;;26.10;60.90;;;;;;5047877;28;20045;-63
2022/08/13 09:15:57;;;;;;;3.08;1.75;;;26.10;60.60;;;;;;5047087;28;20045;-63
2022/08/13 09:18:23;;;;;;;5.22;1.40;;;26.10;61.50;;;;;;5046724;28;20662;-63
2022/08/13 09:20:50;;;;;;;3.17;1.65;;;26.00;61.80;;;;;;5046433;28;20105;-64
2022/08/13 09:23:17;;;;;;;4.28;1.73;;;25.70;62.70;;;;;;5049323;28;20037;-62
2022/08/13 09:25:48;;;;;;;4.25;1.65;;;25.70;63.30;;;;;;5053371;28;20543;-62
2022/08/13 09:28:23;;;;;;;2.78;1.80;;;25.90;62.40;;;;;;5041611;28;20091;-63
2022/08/13 09:30:50;;;;;;;1.83;1.63;;;26.00;63.70;;;;;;5026839;28;20801;-62
2022/08/13 09:33:18;;;;;;;5.70;1.63;;;26.10;61.10;;;;;;5032071;28;20519;-61
2022/08/13 09:35:44;;;;;;;3.05;1.60;;;26.00;63.90;;;;;;5047893;28;20048;-62
2022/08/13 09:38:10;;;;;;;2.47;1.50;;;25.60;63.30;;;;;;5046110;28;20790;-62
2022/08/13 09:40:44;;;;;;;5.70;1.77;;;25.40;63.30;;;;;;5047471;28;20083;-62
2022/08/13 09:43:31;;;;;;;3.67;1.83;;;25.40;65.60;;;;;;5046974;28;20044;-61
2022/08/13 09:45:57;;;;;;;3.00;1.42;;;25.30;66.90;;;;;;5046468;28;20037;-62
2022/08/13 09:48:24;;;;;;;2.65;1.42;;;25.10;62.90;;;;;;5047133;28;20120;-62
2022/08/13 09:50:52;;;;;;;2.08;1.83;;;25.20;64.00;;;;;;5060850;28;20044;-62
2022/08/13 09:53:18;;;;;;;5.40;1.95;;;25.30;62.60;;;;;;5047703;28;20045;-62
2022/08/13 09:55:45;;;;;;;2.13;1.60;;;25.40;63.10;;;;;;5046466;28;20134;-62
2022/08/13 09:58:11;;;;;;;10.85;2.00;;;25.60;62.80;;;;;;5046449;28;20140;-61
2022/08/13 10:00:40;;;;;;;2.40;1.67;;;25.40;62.30;;;;;;5061364;28;20524;-62
2022/08/13 10:03:07;;;;;;;5.97;2.03;;;24.90;62.90;;;;;;5046746;28;20091;-61
2022/08/13 10:05:34;;;;;;;2.78;1.60;;;24.90;65.40;;;;;;5045272;28;20036;-61
2022/08/13 10:08:05;;;;;;;2.00;1.65;;;25.00;64.40;;;;;;5045331;28;20045;-61
2022/08/13 10:10:32;;;;;;;4.93;1.95;;;25.20;63.90;;;;;;5048041;28;20037;-62
2022/08/13 10:12:59;;;;;;;3.80;2.10;;;25.40;62.40;;;;;;5053730;28;20606;-64
2022/08/13 10:15:25;;;;;;;2.50;1.90;;;25.20;64.30;;;;;;5054591;28;20199;-65
2022/08/13 10:17:55;;;;;;;2.42;1.27;;;25.40;63.10;;;;;;5051609;28;20560;-62
2022/08/13 10:20:30;;;;;;;2.65;1.90;;;25.20;64.10;;;;;;5045791;28;20043;-63
2022/08/13 10:22:57;;;;;;;3.75;1.92;;;24.80;63.60;;;;;;5045743;28;20742;-61
2022/08/13 10:25:25;;;;;;;11.05;2.33;;;24.70;63.80;;;;;;5041443;28;20048;-63
2022/08/13 10:27:51;;;;;;;4.60;1.95;;;24.50;63.80;;;;;;5045520;28;20044;-61
2022/08/13 10:30:24;;;;;;;2.83;1.80;;;24.70;66.40;;;;;;5045057;28;20091;-63
2022/08/13 10:32:50;;;;;;;7.43;1.95;;;24.80;65.20;;;;;;5040923;28;20045;-62
2022/08/13 10:35:19;;;;;;;3.03;2.00;;;24.80;64.80;;;;;;5049304;28;20047;-63
2022/08/13 10:37:47;;;;;;;2.33;1.65;;;24.80;62.90;;;;;;5061547;28;20564;-63
2022/08/13 10:40:16;;;;;;;2.40;1.80;;;24.70;63.80;;;;;;5049420;28;20080;-62
2022/08/13 10:42:44;;;;;;;2.22;1.95;;;24.60;62.00;;;;;;5056120;28;20524;-62
2022/08/13 10:45:14;;;;;;;2.17;1.75;;;24.80;62.60;;;;;;5048843;28;20033;-62
2022/08/13 10:47:51;;;;;;;4.75;2.35;;;24.80;63.50;;;;;;5043911;28;20106;-62
2022/08/13 10:50:21;;;;;;;2.25;1.80;;;24.70;64.20;;;;;;5039735;28;20037;-62
2022/08/13 10:52:47;;;;;;;2.45;1.88;;;24.90;64.80;;;;;;5041556;28;20049;-62
2022/08/13 10:55:14;;;;;;;2.40;1.73;;;24.70;62.50;;;;;;5046300;28;20037;-62
2022/08/13 10:57:43;;;;;;;4.63;2.05;;;24.70;63.60;;;;;;5044735;28;20083;-62
2022/08/13 11:00:12;;;;;;;3.10;1.92;;;24.60;63.60;;;;;;5045489;28;20041;-62
2022/08/13 11:02:38;;;;;;;3.70;2.33;;;24.80;63.10;;;;;;5045413;28;20053;-63
2022/08/13 11:05:08;;;;;;;3.55;1.90;;;25.00;60.80;;;;;;5044718;28;20090;-62
2022/08/13 11:07:36;;;;;;;4.78;1.83;;;25.30;64.90;;;;;;5045481;28;20049;-62
2022/08/13 11:10:04;;;;;;;2.95;1.80;;;25.70;61.90;;;;;;5043347;28;20150;-62
2022/08/13 11:12:30;;;;;;;3.35;1.92;;;25.60;65.40;;;;;;5045961;28;20040;-63
2022/08/13 11:14:56;;;;;;;2.95;2.10;;;25.80;62.70;;;;;;5046296;28;20040;-62
2022/08/13 11:17:23;;;;;;;9.27;1.80;;;25.50;63.00;;;;;;5045226;28;20099;-62
2022/08/13 11:19:49;;;;;;;5.80;2.47;;;25.30;61.50;;;;;;5045950;28;20064;-62
2022/08/13 11:22:16;;;;;;;18.77;1.98;;;24.80;62.50;;;;;;5045230;28;20072;-62
2022/08/13 11:24:42;;;;;;;2.33;1.83;;;24.60;65.10;;;;;;5045955;28;20086;-62
2022/08/13 11:27:07;;;;;;;6.68;2.10;;;24.50;66.70;;;;;;5044519;28;20450;-63
2022/08/13 11:29:33;;;;;;;2.50;1.98;;;24.50;64.00;;;;;;5044983;28;20064;-62
2022/08/13 11:31:59;;;;;;;2.65;1.60;;;24.60;62.80;;;;;;5044850;28;20041;-62
2022/08/13 11:34:25;;;;;;;4.28;2.00;;;24.80;64.50;;;;;;5045987;28;20571;-62
2022/08/13 11:36:52;;;;;;;5.20;1.80;;;24.90;61.30;;;;;;5045014;28;20140;-63
2022/08/13 11:39:18;;;;;;;4.28;1.90;;;25.00;61.10;;;;;;5045192;28;20046;-62
2022/08/13 11:41:43;;;;;;;6.38;2.20;;;25.30;61.70;;;;;;5045197;28;20091;-62
2022/08/13 11:44:09;;;;;;;5.18;2.13;;;25.40;60.50;;;;;;5045612;28;20037;-62
2022/08/13 11:46:35;;;;;;;2.88;1.67;;;25.50;61.00;;;;;;5044173;28;20048;-63
2022/08/13 11:49:01;;;;;;;2.00;1.80;;;25.50;60.70;;;;;;5045599;28;20041;-62
2022/08/13 11:51:26;;;;;;;9.27;1.90;;;25.50;61.00;;;;;;5042161;28;20033;-62
2022/08/13 11:53:52;;;;;;;2.63;1.60;;;25.70;61.00;;;;;;5025717;28;20082;-63
2022/08/13 11:56:18;;;;;;;6.55;1.85;;;25.80;60.00;;;;;;5032851;28;20056;-62
2022/08/13 11:58:43;;;;;;;3.63;1.70;;;25.90;60.30;;;;;;5044384;28;20080;-61
2022/08/13 12:01:09;;;;;;;3.03;1.50;;;25.80;59.50;;;;;;5044286;28;20035;-62
2022/08/13 12:03:36;;;;;;;3.42;2.00;;;26.00;64.40;;;;;;5048867;28;20094;-63
2022/08/13 12:06:03;;;;;;;4.22;2.10;;;25.80;59.00;;;;;;5050045;28;20052;-62
2022/08/13 12:08:30;;;;;;;4.95;2.00;;;25.60;59.70;;;;;;5049153;28;20055;-63
2022/08/13 12:10:55;;;;;;;2.05;1.80;;;25.60;60.00;;;;;;5052406;28;20029;-62
2022/08/13 12:13:21;;;;;;;2.15;1.90;;;25.50;60.50;;;;;;5045589;28;20502;-62
2022/08/13 12:15:47;;;;;;;4.28;1.92;;;25.60;59.90;;;;;;5047258;28;20043;-62
2022/08/13 12:18:15;;;;;;;1.73;1.63;;;25.70;61.00;;;;;;5047965;28;20696;-62
2022/08/13 12:20:41;;;;;;;4.03;2.35;;;25.70;58.50;;;;;;5048511;28;20033;-62
2022/08/13 12:23:07;;;;;;;5.80;1.77;;;25.80;59.40;;;;;;5049069;28;20098;-62
2022/08/13 12:25:33;;;;;;;2.03;1.73;;;26.00;59.30;;;;;;5047686;28;20039;-62
2022/08/13 12:28:22;;;;;;;2.10;1.52;;;26.10;59.80;;;;;;5047163;28;20048;-62
2022/08/13 12:30:51;;;;;;;7.97;1.90;;;26.00;58.60;;;;;;5047608;28;20424;-62
2022/08/13 12:33:18;;;;;;;2.10;1.77;;;26.10;59.20;;;;;;5049358;28;20040;-62
2022/08/13 12:35:44;;;;;;;3.38;2.30;;;26.20;59.00;;;;;;5049130;28;20579;-63
2022/08/13 12:38:14;;;;;;;4.43;2.10;;;26.30;59.20;;;;;;5047722;28;20061;-62
2022/08/13 12:40:41;;;;;;;2.67;1.60;;;26.40;57.10;;;;;;5063840;28;20405;-62
2022/08/13 12:43:07;;;;;;;4.07;1.60;;;26.30;56.60;;;;;;5059461;28;20044;-62
2022/08/13 12:45:37;;;;;;;3.50;1.95;;;26.50;57.40;;;;;;5057245;28;20040;-60
2022/08/13 12:48:11;;;;;;;3.83;2.20;;;26.50;57.30;;;;;;5053695;28;20065;-63
2022/08/13 12:50:38;;;;;;;3.15;1.70;;;26.60;56.50;;;;;;5057881;28;20045;-62
2022/08/13 12:53:05;;;;;;;3.65;2.08;;;26.80;57.60;;;;;;5056345;28;20036;-62
2022/08/13 12:55:33;;;;;;;4.80;1.80;;;26.70;57.30;;;;;;5028445;28;20038;-62
2022/08/13 12:57:59;;;;;;;3.83;1.65;;;26.80;57.30;;;;;;5041506;28;20052;-62
2022/08/13 13:00:26;;;;;;;3.00;1.67;;;26.90;55.30;;;;;;5047011;28;20045;-62
2022/08/13 13:02:52;;;;;;;7.80;1.98;;;27.00;57.90;;;;;;5047777;28;20118;-62
2022/08/13 13:05:18;;;;;;;2.80;1.98;;;26.90;56.90;;;;;;5047931;28;20076;-61
2022/08/13 13:07:48;;;;;;;3.97;2.00;;;26.80;57.50;;;;;;5047054;28;20040;-61
2022/08/13 13:10:13;;;;;;;2.58;1.85;;;26.90;56.00;;;;;;5048301;28;20115;-62
2022/08/13 13:12:39;;;;;;;4.13;1.70;;;26.90;55.70;;;;;;5053550;28;20806;-63
2022/08/13 13:15:06;;;;;;;2.47;2.00;;;26.80;56.60;;;;;;5058617;28;20499;-63
2022/08/13 13:17:31;;;;;;;4.72;1.90;;;26.90;57.40;;;;;;5057469;28;20041;-63
2022/08/13 13:20:00;;;;;;;6.05;1.83;;;26.90;56.00;;;;;;5047424;28;20540;-62